Kazhim, Russia
Current Conditions -  °F | °C
As of 9:30 AM on Thursday 23 Oct 2014 (Local Time) from UUYY Reporting Station
Moderate Snow Moderate Snow  
Wind Chill:   Ceiling: 500
Heat Index: 18°   Visibility: 0.68mi
Dew Point: 14°   Wind: 18mph
Humidity: 86%   Direction: 20°NNE
Pressure: 29.91"   Gusts: 27mph
Location:  60.33°N, 51.55°E
Report Text: UUYY 230630Z 02008G12MPS 1100 R01/0800V1300U SN BKN005 OVC066M08/M10 Q1013 NOSIG 0149//41 RMK QFE750/1000
Loading
Personal Weather Stations






























Interactive Weather Map
Tropical Storm Tracking
New forecast layout! Learn more

10-Day Weather Forecast

Advertisements
Track Severe Weather on mobile